Terminal Aerodrome Forecast
Issued by NWS Binghamton, NY

Home | Current Version | Previous Version | Text Only | Print | Product List | Glossary On
Versions: 1 2 3 4 5 6 7 8 9 10 11 12 13 14 15 16 17 18 19 20 21 22
000
FTUS41 KBGM 300847 AAA
TAFBGM
TAF AMD
KBGM 300847Z 3009/3106 19011KT P6SM BKN080 BKN200
      TEMPO 3017/3021 SHRA
     FM302100 21012KT 6SM -SHRA BR BKN070 PROB30 3021/3101 4SM TSRA
      BR BKN050CB
     FM310500 34011KT 4SM SHRA BR OVC035=

USA.gov is the U.S. government's official web portal to all federal, state and local government web resources and services.